createdAt,value
2023-01-11T00:00:39.148Z,1.58
2023-01-11T00:04:05.834Z,2.25
2023-01-11T00:07:29.634Z,3.58
2023-01-11T00:10:55.423Z,5.35
2023-01-11T00:14:29.472Z,1.33
2023-01-11T00:22:07.751Z,4.53
2023-01-11T00:29:09.039Z,2.88
2023-01-11T00:32:32.591Z,6.65
2023-01-11T00:40:54.976Z,6.18
2023-01-11T00:44:43.398Z,3.60
2023-01-11T00:48:18.681Z,6.88
2023-01-11T00:52:26.415Z,3.28
2023-01-11T00:55:50.141Z,4.18
2023-01-11T00:59:27.151Z,4.00
2023-01-11T01:02:51.436Z,4.15
2023-01-11T01:06:16.450Z,3.17
2023-01-11T01:09:58.357Z,1.98
2023-01-11T01:13:58.203Z,6.28
2023-01-11T01:17:52.911Z,2.67
2023-01-11T01:21:17.871Z,1.90
2023-01-11T01:24:42.825Z,4.18
2023-01-11T01:28:12.186Z,3.63
2023-01-11T01:31:54.219Z,6.35
2023-01-11T01:35:54.540Z,6.78
2023-01-11T01:39:38.400Z,6.18
2023-01-11T01:43:05.170Z,1.67
2023-01-11T01:46:34.281Z,2.40
2023-01-11T01:50:02.580Z,1.42
2023-01-11T01:53:50.730Z,3.30
2023-01-11T01:57:20.888Z,7.35
2023-01-11T02:01:50.552Z,5.18
2023-01-11T02:05:26.064Z,4.05
2023-01-11T02:08:53.339Z,9.13
2023-01-11T02:12:17.400Z,1.25
2023-01-11T02:15:42.398Z,4.10
2023-01-11T02:19:06.186Z,6.03
2023-01-11T02:22:59.605Z,1.70
2023-01-11T02:26:36.666Z,3.55
2023-01-11T02:30:06.976Z,2.10
2023-01-11T02:33:35.034Z,9.48
2023-01-11T02:37:13.608Z,2.22
2023-01-11T02:40:43.472Z,1.83
2023-01-11T02:44:28.504Z,1.63
2023-01-11T02:47:57.563Z,1.75
2023-01-11T02:51:23.936Z,2.50
2023-01-11T02:54:53.895Z,0.85
2023-01-11T02:58:19.801Z,1.10
2023-01-11T03:01:47.005Z,4.10
2023-01-11T03:05:14.707Z,1.23
2023-01-11T03:08:45.723Z,3.30
2023-01-11T03:12:37.311Z,3.83
2023-01-11T03:16:10.125Z,2.17
2023-01-11T03:19:36.622Z,3.85
2023-01-11T03:23:10.540Z,3.55
2023-01-11T03:26:39.801Z,2.92
2023-01-11T03:30:05.698Z,0.60
2023-01-11T03:33:32.791Z,0.60
2023-01-11T03:36:58.454Z,1.15
2023-01-11T03:40:25.859Z,1.25
2023-01-11T03:43:51.807Z,0.75
2023-01-11T03:47:17.287Z,2.35
2023-01-11T03:50:41.328Z,2.42
2023-01-11T03:54:07.159Z,3.22
2023-01-11T03:57:34.475Z,0.70
2023-01-11T04:01:00.121Z,0.40
2023-01-11T04:04:24.039Z,0.60
2023-01-11T04:07:47.976Z,1.17
2023-01-11T04:11:11.584Z,1.27
2023-01-11T04:14:36.623Z,1.33
2023-01-11T04:18:04.713Z,0.43
2023-01-11T04:21:28.370Z,2.88
2023-01-11T04:24:52.645Z,0.90
2023-01-11T04:28:16.295Z,2.55
2023-01-11T04:31:41.356Z,0.52
2023-01-11T04:35:05.677Z,2.08
2023-01-11T04:38:29.264Z,0.43
2023-01-11T04:42:10.680Z,1.30
2023-01-11T04:45:34.770Z,0.73
2023-01-11T04:48:59.840Z,1.00
2023-01-11T04:52:23.522Z,1.00
2023-01-11T04:55:47.428Z,0.85
2023-01-11T04:59:10.988Z,2.67
2023-01-11T05:02:34.558Z,1.98
2023-01-11T05:06:00.100Z,0.88
2023-01-11T05:09:23.788Z,0.75
2023-01-11T05:12:47.344Z,3.65
2023-01-11T05:16:11.610Z,0.68
2023-01-11T05:19:35.164Z,0.40
2023-01-11T05:23:00.193Z,1.20
2023-01-11T05:26:24.813Z,0.52
2023-01-11T05:29:50.733Z,4.55
2023-01-11T05:33:15.018Z,0.43
2023-01-11T05:36:38.914Z,0.65
2023-01-11T05:40:05.025Z,0.50
2023-01-11T05:43:30.009Z,2.45
2023-01-11T05:46:52.675Z,0.50
2023-01-11T05:50:16.362Z,1.60
2023-01-11T05:53:39.955Z,0.47
2023-01-11T05:57:10.419Z,0.40
2023-01-11T06:00:34.057Z,0.65
2023-01-11T06:03:57.749Z,2.83
2023-01-11T06:07:24.805Z,8.38
2023-01-11T06:10:52.461Z,2.40
2023-01-11T06:14:17.622Z,0.75
2023-01-11T06:17:41.256Z,0.40
2023-01-11T06:21:05.218Z,1.05
2023-01-11T06:24:28.917Z,0.93
2023-01-11T06:27:54.509Z,0.40
2023-01-11T06:31:19.760Z,0.60
2023-01-11T06:34:43.360Z,0.60
2023-01-11T06:38:07.093Z,3.97
2023-01-11T06:41:30.776Z,0.85
2023-01-11T06:44:54.447Z,0.40
2023-01-11T06:48:20.161Z,0.60
2023-01-11T06:51:43.720Z,5.25
2023-01-11T06:55:07.951Z,0.95
2023-01-11T06:58:31.621Z,0.47
2023-01-11T07:01:55.413Z,2.70
2023-01-11T07:05:20.446Z,0.63
2023-01-11T07:08:44.162Z,1.05
2023-01-11T07:12:07.819Z,0.95
2023-01-11T07:15:31.462Z,0.50
2023-01-11T07:18:55.066Z,6.95
2023-01-11T07:22:22.271Z,1.45
2023-01-11T07:25:45.906Z,0.50
2023-01-11T07:29:09.550Z,0.90
2023-01-11T07:32:33.231Z,0.90
2023-01-11T07:35:58.077Z,0.43
2023-01-11T07:39:29.147Z,0.35
2023-01-11T07:43:15.606Z,0.40
2023-01-11T07:46:39.409Z,1.67
2023-01-11T07:50:03.091Z,0.60
2023-01-11T07:53:26.753Z,3.85
2023-01-11T07:56:52.484Z,2.60
2023-01-11T08:00:17.404Z,0.52
2023-01-11T08:03:49.140Z,1.85
2023-01-11T08:17:28.876Z,2.60
2023-01-11T08:25:35.641Z,0.55
2023-01-11T08:29:02.733Z,0.60
2023-01-11T08:41:15.566Z,0.45
2023-01-11T08:44:57.117Z,0.60
2023-01-11T08:48:26.258Z,0.77
2023-01-11T08:51:54.099Z,0.80
2023-01-11T08:55:22.446Z,0.70
2023-01-11T08:58:56.831Z,0.43
2023-01-11T09:02:39.532Z,0.47
2023-01-11T09:06:26.616Z,0.60
2023-01-11T09:09:52.100Z,0.60
2023-01-11T09:31:10.418Z,0.65
2023-01-11T09:38:14.903Z,0.80
2023-01-11T09:42:05.082Z,0.57
2023-01-11T09:50:12.341Z,0.68
2023-01-11T10:02:46.778Z,0.88
2023-01-11T10:06:21.246Z,0.60
2023-01-11T10:18:30.859Z,5.22
2023-01-11T10:22:59.141Z,7.55
2023-01-11T10:26:29.024Z,3.17
2023-01-11T10:30:19.888Z,10.88
2023-01-11T10:34:08.899Z,9.80
2023-01-11T10:38:02.543Z,14.77
2023-01-11T10:41:42.905Z,8.30
2023-01-11T10:45:34.899Z,1.70
2023-01-11T10:49:21.161Z,3.95
2023-01-11T10:53:17.193Z,2.05
2023-01-11T11:01:41.220Z,2.40
2023-01-11T11:05:13.755Z,6.60
2023-01-11T11:08:42.013Z,0.70
2023-01-11T11:12:08.553Z,5.10
2023-01-11T11:15:37.095Z,3.42
2023-01-11T11:19:01.535Z,4.07
2023-01-11T11:22:31.917Z,1.60
2023-01-11T11:25:58.230Z,1.85
2023-01-11T11:29:30.508Z,0.88
2023-01-11T11:33:03.260Z,1.90
2023-01-11T11:46:35.916Z,4.68
2023-01-11T12:01:27.907Z,3.70
2023-01-11T12:09:07.168Z,2.55
2023-01-11T12:12:51.581Z,3.20
2023-01-11T12:16:31.860Z,0.50
2023-01-11T12:20:21.379Z,5.43
2023-01-11T12:34:24.898Z,4.78
2023-01-11T12:55:21.787Z,1.88
2023-01-11T13:15:34.311Z,1.50
2023-01-11T13:20:17.761Z,1.70
2023-01-11T13:23:56.203Z,1.83
2023-01-11T13:27:24.522Z,2.13
2023-01-11T13:30:55.184Z,2.33
2023-01-11T13:34:27.923Z,1.83
2023-01-11T13:42:12.836Z,3.25
2023-01-11T13:45:41.001Z,2.85
2023-01-11T13:54:16.559Z,1.77
2023-01-11T13:57:51.373Z,2.83
2023-01-11T14:01:25.952Z,4.75
2023-01-11T14:05:03.077Z,4.10
2023-01-11T14:08:46.616Z,5.65
2023-01-11T14:12:23.867Z,3.83
2023-01-11T14:16:24.713Z,1.75
2023-01-11T14:21:21.325Z,1.10
2023-01-11T14:25:13.850Z,4.20
2023-01-11T14:29:10.309Z,3.17
2023-01-11T14:33:11.161Z,3.03
2023-01-11T15:37:42.013Z,6.53
2023-01-11T15:41:30.471Z,5.75
2023-01-11T15:45:32.696Z,4.03
2023-01-11T15:49:15.161Z,3.03
2023-01-11T15:53:08.169Z,3.90
2023-01-11T15:57:07.738Z,5.18
2023-01-11T16:00:46.641Z,12.68
2023-01-11T16:04:35.015Z,4.28
2023-01-11T16:08:04.257Z,6.53
2023-01-11T16:11:38.722Z,6.45
2023-01-11T16:15:14.502Z,9.38
2023-01-11T16:22:46.487Z,8.23
2023-01-11T16:26:51.164Z,15.70
2023-01-11T16:30:32.119Z,9.30
2023-01-11T16:34:08.209Z,7.25
2023-01-11T16:37:36.809Z,11.85
2023-01-11T16:40:43.343Z,9.75
2023-01-11T16:43:52.517Z,10.13
2023-01-11T16:47:17.461Z,4.70
2023-01-11T16:50:25.049Z,8.40
2023-01-11T16:53:36.911Z,13.20
2023-01-11T16:56:40.562Z,6.90
2023-01-11T16:59:44.065Z,5.97
2023-01-11T17:02:50.092Z,5.72
2023-01-11T17:06:00.254Z,12.48
2023-01-11T17:09:16.302Z,4.90
2023-01-11T17:12:25.088Z,12.23
2023-01-11T17:15:34.535Z,5.57
2023-01-11T17:18:59.752Z,13.60
2023-01-11T17:22:13.511Z,5.75
2023-01-11T17:25:19.626Z,10.18
2023-01-11T17:28:23.110Z,4.00
2023-01-11T17:31:27.903Z,9.88
2023-01-11T17:34:34.116Z,4.28
2023-01-11T17:37:39.411Z,11.07
2023-01-11T17:40:43.268Z,9.18
2023-01-11T17:44:11.059Z,6.40
2023-01-11T17:47:15.577Z,8.98
2023-01-11T17:50:21.432Z,11.38
2023-01-11T17:53:28.307Z,8.93
2023-01-11T17:56:42.045Z,7.28
2023-01-11T17:59:47.825Z,5.45
2023-01-11T18:02:52.262Z,14.88
2023-01-11T18:05:57.048Z,10.98
2023-01-11T18:09:03.312Z,12.70
2023-01-11T18:12:11.041Z,26.05
2023-01-11T18:15:21.409Z,14.82
2023-01-11T18:18:42.391Z,15.02
2023-01-11T18:21:54.754Z,19.15
2023-01-11T18:25:02.263Z,9.77
2023-01-11T18:28:28.886Z,8.65
2023-01-11T18:31:32.261Z,6.68
2023-01-11T18:34:36.303Z,5.88
2023-01-11T18:37:39.668Z,2.65
2023-01-11T18:40:44.760Z,7.60
2023-01-11T18:43:48.411Z,5.95
2023-01-11T18:46:52.666Z,3.78
2023-01-11T18:49:58.842Z,9.52
2023-01-11T18:53:02.444Z,11.63
2023-01-11T18:56:08.017Z,8.57
2023-01-11T18:59:11.416Z,10.50
2023-01-11T19:05:26.695Z,10.85
2023-01-11T19:08:31.451Z,6.78
2023-01-11T19:11:36.672Z,8.52
2023-01-11T19:14:40.098Z,5.43
2023-01-11T19:17:46.874Z,9.20
2023-01-11T19:20:50.224Z,5.88
2023-01-11T19:23:54.048Z,7.95
2023-01-11T19:27:00.210Z,6.07
2023-01-11T19:30:04.586Z,6.53
2023-01-11T19:33:08.641Z,12.38
2023-01-11T19:36:12.608Z,10.07
2023-01-11T19:39:17.191Z,8.38
2023-01-11T19:42:29.952Z,5.13
2023-01-11T20:00:47.225Z,14.75
2023-01-11T20:03:55.450Z,12.48
2023-01-11T20:12:58.144Z,8.30
2023-01-11T20:16:05.751Z,9.43
2023-01-11T20:19:14.384Z,11.20
2023-01-11T20:30:53.708Z,9.13
2023-01-11T20:38:35.289Z,9.90
2023-01-11T20:41:52.136Z,8.57
2023-01-11T20:45:24.089Z,11.80
2023-01-11T20:48:29.145Z,6.18
2023-01-11T20:51:35.446Z,8.18
2023-01-11T20:54:41.126Z,7.55
2023-01-11T20:57:47.688Z,3.97
2023-01-11T21:01:19.935Z,9.18
2023-01-11T21:04:23.484Z,4.43
2023-01-11T21:07:50.632Z,12.10
2023-01-11T21:11:31.870Z,5.68
2023-01-11T21:15:26.330Z,8.02
2023-01-11T21:18:38.323Z,7.68
2023-01-11T21:21:42.299Z,14.15
2023-01-11T21:41:09.679Z,3.67
2023-01-11T21:47:36.233Z,10.48
2023-01-11T21:50:48.033Z,11.98
2023-01-11T21:53:51.529Z,10.18
2023-01-11T21:56:56.254Z,7.50
2023-01-11T21:59:59.630Z,3.67
2023-01-11T22:03:15.162Z,5.80
2023-01-11T22:10:18.543Z,7.88
2023-01-11T22:13:50.682Z,10.23
2023-01-11T22:16:55.491Z,7.35
2023-01-11T22:19:58.849Z,10.63
2023-01-11T22:23:02.189Z,3.45
2023-01-11T22:26:46.453Z,10.02
2023-01-11T22:30:18.987Z,9.40
2023-01-11T22:33:25.332Z,7.00
2023-01-11T22:36:29.500Z,6.13
2023-01-11T22:39:45.028Z,8.75
2023-01-11T22:42:48.384Z,6.03
2023-01-11T22:45:58.550Z,11.30
2023-01-11T22:49:03.691Z,13.10
2023-01-11T22:52:07.195Z,6.00
2023-01-11T22:55:19.587Z,7.72
2023-01-11T22:58:23.036Z,12.93
2023-01-11T23:01:37.504Z,7.00
2023-01-11T23:08:01.435Z,3.63
2023-01-11T23:11:04.819Z,12.80
2023-01-11T23:14:08.465Z,9.90
2023-01-11T23:17:11.787Z,8.32
2023-01-11T23:20:32.816Z,9.68
2023-01-11T23:23:59.832Z,14.95
2023-01-11T23:27:04.682Z,6.65
2023-01-11T23:30:08.801Z,2.63
2023-01-11T23:33:12.173Z,10.60
2023-01-11T23:36:15.812Z,14.27
2023-01-11T23:39:19.587Z,9.50
2023-01-11T23:42:26.446Z,6.60
2023-01-11T23:45:29.772Z,2.60
2023-01-11T23:48:32.057Z,10.88
2023-01-11T23:51:35.493Z,6.72
2023-01-11T23:54:38.780Z,4.68
2023-01-11T23:58:13.317Z,3.78
